Time;durP1;ratioP1;P1;durP2;ratioP2;P2;SDS_P1;SDS_P2;PMS_P1;PMS_P2;Temp;Humidity;BMP_temperature;BMP_pressure;BME280_temperature;BME280_humidity;BME280_pressure;Samples;Min_cycle;Max_cycle;Signal;HPM_P1;HPM_P2
2022/11/11 00:02:40;;;;;;;3.83;3.53;;;;;;;-142.65;79.59;50174.75;5116725;28;20338;-70
2022/11/11 00:05:26;;;;;;;4.10;3.90;;;;;;;-142.65;79.88;50172.78;5117486;28;20267;-70
2022/11/11 00:08:10;;;;;;;4.40;3.93;;;;;;;-142.65;79.73;50176.75;5117181;28;20649;-70
2022/11/11 00:11:04;;;;;;;6.13;5.27;;;;;;;-142.65;80.18;50182.72;5117355;28;20177;-70
2022/11/11 00:13:49;;;;;;;4.03;3.83;;;;;;;-142.65;80.43;50178.75;5118127;28;20537;-69
2022/11/11 00:25:45;;;;;;;4.57;4.23;;;;;;;-142.65;81.82;50178.75;5117100;28;20299;-69
2022/11/11 00:28:30;;;;;;;10.53;4.57;;;;;;;-142.65;81.53;50180.75;5117072;28;20188;-69
2022/11/11 00:31:14;;;;;;;4.60;4.40;;;;;;;-142.65;81.60;50180.75;5116985;28;20188;-69
2022/11/11 00:33:59;;;;;;;4.43;4.23;;;;;;;;;;5116743;28;20168;-69
2022/11/11 00:36:44;;;;;;;5.30;4.97;;;;;;;-142.65;81.91;50174.75;5101531;28;20540;-69
2022/11/11 00:39:29;;;;;;;5.20;4.93;;;;;;;-142.65;82.18;50176.75;5116524;28;20184;-69
2022/11/11 00:42:14;;;;;;;4.67;4.37;;;;;;;-142.65;81.96;50170.78;5116149;28;20212;-70
2022/11/11 00:44:59;;;;;;;4.73;4.40;;;;;;;-142.65;81.99;50180.75;5116162;28;20196;-69
2022/11/11 00:50:57;;;;;;;5.20;4.80;;;;;;;-142.65;81.93;50172.78;5116653;28;20176;-69
2022/11/11 00:53:42;;;;;;;5.37;4.93;;;;;;;-142.65;81.91;50178.75;5116233;28;20224;-70
2022/11/11 00:56:27;;;;;;;4.77;4.40;;;;;;;-142.65;81.58;50168.78;5116227;28;20176;-69
2022/11/11 00:59:12;;;;;;;5.07;4.63;;;;;;;-142.65;81.61;50174.75;5116513;28;20621;-69
2022/11/11 01:01:56;;;;;;;7.30;4.30;;;;;;;-142.65;81.51;50170.78;5116278;28;20294;-70
2022/11/11 01:04:42;;;;;;;4.87;4.37;;;;;;;;;;5115809;28;20273;-70
2022/11/11 01:07:27;;;;;;;5.87;4.33;;;;;;;-142.65;81.33;50172.78;5116329;28;20381;-70
2022/11/11 01:10:11;;;;;;;6.53;4.00;;;;;;;-142.65;81.23;50170.78;5115998;28;20185;-70
2022/11/11 01:13:10;;;;;;;4.40;4.13;;;;;;;-142.65;81.33;50172.78;5115144;28;20706;-70
2022/11/11 01:16:02;;;;;;;5.27;4.90;;;;;;;-142.65;81.25;50172.78;5115679;28;20246;-70
2022/11/11 01:18:47;;;;;;;4.97;4.20;;;;;;;-142.65;81.33;50174.75;5115786;28;20255;-70
2022/11/11 01:21:32;;;;;;;4.60;4.30;;;;;;;-142.65;81.31;50174.75;5115941;28;20183;-69
2022/11/11 01:24:18;;;;;;;4.80;4.47;;;;;;;-142.65;81.38;50178.75;5115639;28;20321;-69
2022/11/11 01:27:03;;;;;;;4.17;3.87;;;;;;;-142.65;81.16;50170.78;5115629;28;20176;-69
2022/11/11 01:29:48;;;;;;;4.27;4.03;;;;;;;-142.65;81.05;50170.78;5115589;28;20311;-69
2022/11/11 01:32:32;;;;;;;3.50;3.37;;;;;;;-142.65;80.88;50178.75;5115486;28;20327;-70
2022/11/11 01:35:17;;;;;;;5.10;4.67;;;;;;;-142.65;81.04;50180.75;5115480;28;20181;-70
2022/11/11 01:38:02;;;;;;;4.67;4.57;;;;;;;;;;5115709;28;20188;-69
2022/11/11 01:40:47;;;;;;;4.17;4.07;;;;;;;-142.65;80.95;50170.78;5115417;28;20242;-69
2022/11/11 01:43:32;;;;;;;4.33;4.23;;;;;;;-142.65;80.94;50174.75;5115136;28;20262;-69
2022/11/11 01:46:34;;;;;;;4.53;4.43;;;;;;;-142.65;80.88;50172.78;5115521;28;20181;-69
2022/11/11 01:49:30;;;;;;;4.57;4.27;;;;;;;-142.65;81.04;50170.78;5115201;28;20707;-69
2022/11/11 01:52:33;;;;;;;4.40;4.10;;;;;;;-142.65;81.01;50172.78;5115340;28;20211;-69
2022/11/11 01:55:20;;;;;;;4.40;4.30;;;;;;;-142.65;80.67;50170.78;5115067;28;20555;-69
2022/11/11 01:58:09;;;;;;;4.07;3.87;;;;;;;-142.65;81.01;50168.78;5115320;28;20184;-69
2022/11/11 02:00:57;;;;;;;5.30;5.03;;;;;;;-142.65;80.84;50172.78;5115243;28;20326;-69
2022/11/11 02:05:40;;;;;;;4.67;4.57;;;;;;;-142.65;80.69;50170.78;5114746;28;20286;-69
2022/11/11 02:06:51;;;;;;;4.40;4.07;;;;;;;;;;5114800;28;20431;-69
2022/11/11 02:09:39;;;;;;;4.83;4.63;;;;;;;;;;5114824;28;20634;-69
2022/11/11 02:15:28;;;;;;;4.77;4.17;;;;;;;-142.65;80.51;50180.75;5114843;28;20194;-70
2022/11/11 02:18:13;;;;;;;5.03;4.63;;;;;;;-142.65;80.54;50182.72;5114680;28;20288;-70
2022/11/11 02:20:58;;;;;;;4.83;4.57;;;;;;;-142.65;80.27;50174.75;5114579;28;20194;-70
2022/11/11 02:24:06;;;;;;;5.07;4.53;;;;;;;-142.65;80.46;50174.75;5114174;28;20595;-70
2022/11/11 02:26:53;;;;;;;3.97;3.83;;;;;;;-142.65;80.74;50170.78;5114821;28;20590;-70
2022/11/11 02:29:46;;;;;;;5.27;4.10;;;;;;;-142.65;80.57;50168.78;5114234;28;20181;-70
2022/11/11 02:32:31;;;;;;;6.33;4.40;;;;;;;-142.65;80.09;50172.78;5114475;28;20315;-70
2022/11/11 02:35:20;;;;;;;5.40;5.00;;;;;;;-142.65;80.47;50178.75;5114389;28;20680;-70
2022/11/11 02:38:10;;;;;;;3.90;3.80;;;;;;;-142.65;80.61;50174.75;5114341;28;20176;-70
2022/11/11 02:43:59;;;;;;;3.90;3.70;;;;;;;-142.65;80.93;50182.72;5114125;28;20200;-69
2022/11/11 02:46:44;;;;;;;4.70;4.37;;;;;;;;;;5114531;28;20547;-69
2022/11/11 02:49:29;;;;;;;5.13;4.73;;;;;;;-142.65;80.99;50174.75;5114518;28;20222;-69
2022/11/11 02:52:14;;;;;;;5.13;4.73;;;;;;;-142.65;80.55;50180.75;5114299;28;20297;-69
2022/11/11 02:55:00;;;;;;;5.27;4.93;;;;;;;-142.65;80.55;50168.78;5113889;28;20179;-69
2022/11/11 02:57:45;;;;;;;4.20;4.00;;;;;;;-142.65;80.90;50170.78;5114079;28;20179;-69
2022/11/11 03:00:30;;;;;;;9.83;4.40;;;;;;;-142.65;80.91;50174.75;5114057;28;20230;-69
2022/11/11 03:03:15;;;;;;;3.83;3.50;;;;;;;-142.65;80.52;50182.72;5113877;28;20222;-69
2022/11/11 03:06:00;;;;;;;4.53;4.23;;;;;;;-142.65;80.62;50174.75;5114021;28;20176;-69
2022/11/11 03:08:45;;;;;;;4.77;4.40;;;;;;;-142.65;80.64;50182.72;5114277;28;20201;-69
2022/11/11 03:11:32;;;;;;;4.87;4.53;;;;;;;-142.65;80.66;50174.75;5114259;28;20278;-69
2022/11/11 03:14:17;;;;;;;4.67;4.37;;;;;;;-142.65;80.71;50174.75;5114253;28;20183;-69
2022/11/11 03:23:13;;;;;;;5.23;3.70;;;;;;;-142.65;80.56;50178.75;5113789;28;20256;-70
2022/11/11 03:25:58;;;;;;;5.23;4.73;;;;;;;-142.65;80.80;50168.78;5114104;28;20180;-70
2022/11/11 03:28:43;;;;;;;7.87;4.17;;;;;;;-142.65;80.76;50174.75;5113844;28;20190;-70
2022/11/11 03:31:27;;;;;;;4.03;4.03;;;;;;;-142.65;80.38;50174.75;5114074;28;20175;-70
2022/11/11 03:34:18;;;;;;;4.03;3.73;;;;;;;-142.65;80.45;50170.78;5113810;28;20685;-70
2022/11/11 03:40:09;;;;;;;3.80;3.50;;;;;;;;;;5117732;28;20176;-70
2022/11/11 03:42:55;;;;;;;3.70;3.50;;;;;;;-142.65;80.55;50168.78;5117349;28;20220;-70
2022/11/11 03:45:49;;;;;;;3.73;3.43;;;;;;;-142.65;80.17;50172.78;5117831;28;20184;-70
2022/11/11 03:48:34;;;;;;;4.13;3.80;;;;;;;;;;5117576;28;20186;-70
2022/11/11 03:51:18;;;;;;;3.90;3.57;;;;;;;-142.65;80.12;50170.78;5117246;28;20238;-70
2022/11/11 03:54:03;;;;;;;3.33;3.33;;;;;;;-142.65;80.14;50170.78;5117740;28;20277;-70
2022/11/11 03:56:48;;;;;;;4.17;4.03;;;;;;;-142.65;80.27;50178.75;5117393;28;20544;-70
2022/11/11 03:59:33;;;;;;;3.93;3.80;;;;;;;-142.65;80.22;50172.78;5117674;28;20184;-70
2022/11/11 04:11:36;;;;;;;5.53;5.13;;;;;;;-142.65;82.39;50180.75;5116874;28;20211;-70
2022/11/11 04:17:24;;;;;;;6.93;4.77;;;;;;;-142.65;82.80;50174.75;5117048;28;20179;-70
2022/11/11 04:23:13;;;;;;;5.50;5.10;;;;;;;-142.65;82.26;50180.75;5116898;28;20212;-70
2022/11/11 04:26:01;;;;;;;6.20;5.70;;;;;;;-142.65;82.88;50168.78;5117139;28;20183;-70
2022/11/11 04:32:51;;;;;;;4.60;4.30;;;;;;;-142.65;82.75;50168.78;5116929;28;20592;-70
2022/11/11 04:35:11;;;;;;;5.40;5.03;;;;;;;;;;5107716;28;20258;-70
2022/11/11 04:41:02;;;;;;;5.50;5.30;;;;;;;-142.65;82.81;50172.78;5116658;28;20545;-70
2022/11/11 04:41:04;;;;;;;4.20;4.10;;;;;;;-142.65;82.88;50168.78;5116591;28;20181;-70
2022/11/11 04:46:52;;;;;;;4.00;3.90;;;;;;;;;;5116772;28;20282;-70
2022/11/11 04:49:37;;;;;;;4.53;4.43;;;;;;;-142.65;82.62;50172.78;5116669;28;20198;-70
2022/11/11 04:52:25;;;;;;;4.53;4.40;;;;;;;-142.65;82.56;50174.75;5116813;28;20231;-70
2022/11/11 04:58:15;;;;;;;5.57;4.97;;;;;;;-142.65;82.43;50178.75;5116228;28;20180;-70
2022/11/11 05:01:00;;;;;;;3.97;3.67;;;;;;;-142.65;82.26;50180.75;5116206;28;20540;-70
2022/11/11 05:03:45;;;;;;;5.00;4.80;;;;;;;-142.65;82.39;50174.75;5116275;28;20207;-70
2022/11/11 05:09:36;;;;;;;3.70;3.50;;;;;;;-142.65;82.53;50178.75;5115963;28;20592;-70
2022/11/11 05:12:21;;;;;;;4.13;3.93;;;;;;;-142.65;82.59;50170.78;5116175;28;20223;-70
2022/11/11 05:21:22;;;;;;;4.20;3.90;;;;;;;-142.65;82.32;50174.75;5115789;28;20182;-70
2022/11/11 05:27:11;;;;;;;3.90;3.70;;;;;;;-142.65;82.34;50178.75;5115580;28;20331;-70
2022/11/11 05:29:56;;;;;;;3.60;3.50;;;;;;;-142.65;81.96;50182.72;5115621;28;20184;-70
2022/11/11 05:32:42;;;;;;;4.17;3.63;;;;;;;-142.65;82.05;50180.75;5115457;28;20248;-70
2022/11/11 05:35:27;;;;;;;4.00;3.80;;;;;;;;;;5115742;28;20245;-70
2022/11/11 05:38:20;;;;;;;4.20;4.07;;;;;;;-142.65;82.13;50180.75;5115417;28;20200;-70
2022/11/11 05:41:07;;;;;;;4.63;4.20;;;;;;;-142.65;82.04;50174.75;5115690;28;20650;-70
2022/11/11 05:43:51;;;;;;;4.53;4.23;;;;;;;-142.65;82.14;50172.78;5115166;28;20289;-70
2022/11/11 05:46:36;;;;;;;4.27;3.97;;;;;;;-142.65;81.97;50178.75;5114986;28;20691;-70
2022/11/11 05:49:21;;;;;;;4.57;4.47;;;;;;;-142.65;81.98;50178.75;5115432;28;20230;-71
2022/11/11 05:52:08;;;;;;;3.77;3.57;;;;;;;-142.65;82.15;50174.75;5115066;28;20216;-70
2022/11/11 05:54:53;;;;;;;3.53;3.50;;;;;;;-142.65;82.07;50178.75;5115017;28;20176;-70
2022/11/11 05:57:38;;;;;;;3.33;3.23;;;;;;;-142.65;82.09;50168.78;5115316;28;20179;-70
2022/11/11 06:00:23;;;;;;;4.43;4.23;;;;;;;-142.65;81.83;50174.75;5114557;28;20178;-70
2022/11/11 06:03:07;;;;;;;3.63;3.30;;;;;;;-142.65;81.76;50174.75;5115158;28;20204;-70
2022/11/11 06:05:52;;;;;;;4.20;4.10;;;;;;;-142.65;81.76;50178.75;5114598;28;20680;-70
2022/11/11 06:08:37;;;;;;;3.73;3.63;;;;;;;-142.65;81.96;50182.72;5115106;28;20252;-70
2022/11/11 06:11:22;;;;;;;4.10;4.00;;;;;;;-142.65;81.73;50170.78;5114788;28;20287;-70
2022/11/11 06:14:12;;;;;;;3.90;3.70;;;;;;;-142.65;81.69;50178.75;5114735;28;20665;-70
2022/11/11 06:16:57;;;;;;;4.20;4.10;;;;;;;-142.65;81.71;50168.78;5115446;28;20207;-70
2022/11/11 06:19:41;;;;;;;3.70;3.37;;;;;;;;;;5114943;28;20177;-70
2022/11/11 06:22:55;;;;;;;4.07;3.97;;;;;;;-142.65;81.64;50168.78;5114204;28;20266;-70
2022/11/11 06:28:38;;;;;;;3.90;3.63;;;;;;;-142.65;81.54;50170.78;5114131;28;20190;-70
2022/11/11 06:31:25;;;;;;;4.27;4.07;;;;;;;-142.65;81.59;50178.75;5114391;28;20191;-70
2022/11/11 06:34:10;;;;;;;3.93;3.83;;;;;;;-142.65;81.58;50174.75;5114418;28;20268;-70
2022/11/11 06:36:55;;;;;;;3.73;3.70;;;;;;;-142.65;81.89;50170.78;5114645;28;20183;-70
2022/11/11 06:39:40;;;;;;;4.20;4.10;;;;;;;-142.65;81.81;50174.75;5114309;28;20546;-70
2022/11/11 06:42:25;;;;;;;4.37;4.17;;;;;;;-142.65;81.99;50178.75;5114221;28;20216;-70
2022/11/11 06:45:09;;;;;;;4.40;4.20;;;;;;;-142.65;82.10;50174.75;5114326;28;20262;-70
2022/11/11 06:47:54;;;;;;;5.27;4.87;;;;;;;-142.65;82.07;50174.75;5114476;28;20183;-70
2022/11/11 06:50:39;;;;;;;3.90;3.63;;;;;;;-142.65;82.07;50168.78;5114347;28;20172;-70
2022/11/11 06:53:24;;;;;;;5.07;3.53;;;;;;;-142.65;82.01;50174.75;5114101;28;20241;-70
2022/11/11 06:56:11;;;;;;;4.43;4.03;;;;;;;-142.65;81.95;50180.75;5114071;28;20228;-70
2022/11/11 06:58:56;;;;;;;5.57;5.33;;;;;;;-142.65;82.01;50176.75;5114093;28;20179;-70
2022/11/11 07:01:41;;;;;;;4.63;4.23;;;;;;;-142.65;82.20;50172.78;5114242;28;20190;-71
2022/11/11 07:04:26;;;;;;;4.10;3.90;;;;;;;-142.65;82.09;50178.75;5113992;28;20564;-70
2022/11/11 07:07:10;;;;;;;6.13;4.23;;;;;;;-142.65;82.06;50174.75;5113982;28;20638;-70
2022/11/11 07:09:55;;;;;;;5.63;5.00;;;;;;;-142.65;82.25;50172.78;5114228;28;20182;-70
2022/11/11 07:12:41;;;;;;;5.10;4.80;;;;;;;-142.65;81.96;50182.72;5117705;28;20299;-70
2022/11/11 07:15:26;;;;;;;5.27;5.07;;;;;;;-142.65;81.87;50178.75;5118006;28;20581;-70
2022/11/11 07:18:11;;;;;;;4.07;3.90;;;;;;;-142.65;82.09;50170.78;5118122;28;20179;-70
2022/11/11 07:20:56;;;;;;;4.63;4.53;;;;;;;-142.65;82.01;50178.75;5118447;28;20182;-70
2022/11/11 07:23:41;;;;;;;5.10;4.93;;;;;;;-142.65;82.15;50170.78;5117981;28;20222;-70
2022/11/11 07:26:26;;;;;;;6.17;4.40;;;;;;;;;;5117721;28;20570;-70
2022/11/11 07:29:13;;;;;;;8.20;4.90;;;;;;;-142.65;82.24;50178.75;5118154;28;20219;-70
2022/11/11 07:31:58;;;;;;;4.40;4.10;;;;;;;-142.65;82.08;50176.75;5117484;28;20244;-70
2022/11/11 07:34:45;;;;;;;5.03;4.67;;;;;;;-142.65;82.07;50178.75;5117862;28;20271;-70
2022/11/11 07:37:30;;;;;;;5.07;4.67;;;;;;;-142.65;81.78;50172.78;5118051;28;20647;-70
2022/11/11 07:40:17;;;;;;;5.00;4.50;;;;;;;-142.65;81.87;50170.78;5117578;28;20179;-70
2022/11/11 07:43:02;;;;;;;4.33;4.23;;;;;;;-142.65;81.83;50182.72;5117607;28;20697;-70
2022/11/11 07:45:47;;;;;;;5.33;5.20;;;;;;;-142.65;81.77;50178.75;5117431;28;20207;-70
2022/11/11 07:48:31;;;;;;;5.37;5.17;;;;;;;-142.65;81.23;50174.75;5117592;28;20739;-70
2022/11/11 07:51:16;;;;;;;5.07;4.70;;;;;;;-142.65;81.06;50170.78;5117510;28;20179;-70
2022/11/11 07:54:01;;;;;;;4.90;4.70;;;;;;;-142.65;80.80;50168.78;5118090;28;20176;-70
2022/11/11 07:56:46;;;;;;;4.90;4.67;;;;;;;-142.65;80.70;50118.97;5117752;28;20176;-70
2022/11/11 07:59:31;;;;;;;4.13;4.00;;;;;;;-142.65;80.45;50168.78;5117343;28;20268;-70
2022/11/11 08:02:16;;;;;;;4.43;3.60;;;;;;;-142.65;80.22;50180.75;5117035;28;20211;-70
2022/11/11 08:05:01;;;;;;;4.63;4.43;;;;;;;-142.65;79.32;50170.78;5117413;28;20203;-70
2022/11/11 08:07:46;;;;;;;3.50;3.17;;;;;;;-142.65;79.24;50170.78;5117215;28;20230;-70
2022/11/11 08:10:32;;;;;;;3.80;3.70;;;;;;;-142.65;78.88;50176.75;5117160;28;20180;-70
2022/11/11 08:16:20;;;;;;;3.70;3.50;;;;;;;;;;5116946;28;20749;-70
2022/11/11 08:19:05;;;;;;;3.57;3.33;;;;;;;-142.65;78.20;50174.75;5117324;28;20638;-70
2022/11/11 08:21:51;;;;;;;3.30;3.30;;;;;;;-142.65;77.82;50174.75;5116453;28;20181;-70
2022/11/11 08:24:36;;;;;;;3.57;3.40;;;;;;;-142.65;77.79;50174.75;5117111;28;20184;-70
2022/11/11 08:27:41;;;;;;;3.47;3.37;;;;;;;;;;5117111;28;20274;-70
2022/11/11 08:30:27;;;;;;;3.37;3.20;;;;;;;-142.65;77.31;50174.75;5117077;28;20180;-70
2022/11/11 08:33:11;;;;;;;2.43;2.43;;;;;;;-142.65;77.40;50178.75;5116685;28;20215;-70
2022/11/11 08:36:17;;;;;;;5.33;3.70;;;;;;;-142.65;76.39;50170.78;5116640;28;20303;-70
2022/11/11 08:39:05;;;;;;;3.17;3.17;;;;;;;-142.65;76.31;50178.75;5116912;28;20227;-70
2022/11/11 08:41:49;;;;;;;3.63;3.17;;;;;;;-142.65;75.65;50170.78;5116463;28;20299;-70
2022/11/11 08:44:34;;;;;;;2.87;2.83;;;;;;;-142.65;75.24;50180.75;5116419;28;20184;-70
2022/11/11 08:47:21;;;;;;;4.73;3.23;;;;;;;-142.65;74.91;50174.75;5116367;28;20199;-70
2022/11/11 08:50:06;;;;;;;3.93;3.50;;;;;;;-142.65;74.47;50176.75;5116422;28;20181;-70
2022/11/11 08:52:51;;;;;;;3.00;2.90;;;;;;;-142.65;74.37;50174.75;5116367;28;20212;-70
2022/11/11 08:55:37;;;;;;;3.53;3.23;;;;;;;-142.65;73.99;50168.78;5116593;28;20800;-70
2022/11/11 08:58:22;;;;;;;4.33;3.07;;;;;;;-142.65;73.32;50174.75;5116543;28;20587;-70
2022/11/11 09:01:12;;;;;;;3.00;2.90;;;;;;;-142.65;72.89;50178.75;5116245;28;20227;-70
2022/11/11 09:03:57;;;;;;;3.10;2.80;;;;;;;;;;5116097;28;20224;-71
2022/11/11 09:07:00;;;;;;;3.40;3.10;;;;;;;-142.65;71.80;50170.78;5116072;28;20184;-70
2022/11/11 09:09:45;;;;;;;3.37;3.27;;;;;;;-142.65;71.70;50174.75;5116339;28;20180;-70
2022/11/11 09:12:30;;;;;;;2.80;2.70;;;;;;;-142.65;72.00;50168.78;5116096;28;20216;-71
2022/11/11 09:15:14;;;;;;;3.70;3.60;;;;;;;-142.65;71.16;50164.81;5115998;28;20269;-70
2022/11/11 09:18:00;;;;;;;2.63;2.47;;;;;;;-142.65;70.57;50170.78;5115894;28;20177;-70
2022/11/11 09:20:45;;;;;;;3.53;2.80;;;;;;;;;;5116131;28;20191;-70
2022/11/11 09:23:30;;;;;;;5.33;3.03;;;;;;;-142.65;70.96;50174.75;5115727;28;20291;-70
2022/11/11 09:26:14;;;;;;;3.20;3.00;;;;;;;;;;5115515;28;20259;-70
2022/11/11 09:28:59;;;;;;;2.87;2.87;;;;;;;-142.65;70.10;50168.78;5115943;28;20192;-70
2022/11/11 09:31:45;;;;;;;5.33;2.60;;;;;;;-142.65;70.16;50170.78;5115808;28;20638;-71
2022/11/11 09:34:30;;;;;;;3.07;2.40;;;;;;;-142.65;69.30;50172.78;5114658;28;20184;-70
2022/11/11 09:37:15;;;;;;;2.67;2.53;;;;;;;-142.65;69.90;50168.78;5115434;28;20172;-70
2022/11/11 09:40:00;;;;;;;4.43;2.57;;;;;;;-142.65;69.07;50174.75;5115737;28;20655;-70
2022/11/11 09:42:58;;;;;;;2.10;2.00;;;;;;;-142.65;68.99;50174.75;5115068;28;20216;-70
2022/11/11 09:46:01;;;;;;;2.40;2.27;;;;;;;-142.65;69.14;50170.78;5115418;28;20665;-70
2022/11/11 09:49:16;;;;;;;7.27;2.37;;;;;;;-142.65;67.45;50170.78;5115277;28;20239;-70
2022/11/11 09:52:04;;;;;;;1.93;1.83;;;;;;;;;;5092022;28;20236;-70
2022/11/11 09:54:58;;;;;;;5.40;1.67;;;;;;;-142.65;67.41;50180.75;5115063;28;20299;-70
2022/11/11 09:57:57;;;;;;;4.10;1.80;;;;;;;-142.65;66.81;50170.78;5114832;28;20196;-70
2022/11/11 10:00:44;;;;;;;1.93;1.93;;;;;;;;;;5115050;28;20655;-70
2022/11/11 10:03:34;;;;;;;1.70;1.70;;;;;;;-142.65;66.69;50172.78;5114908;28;20704;-70
2022/11/11 10:06:25;;;;;;;2.23;2.10;;;;;;;;;;5114652;28;20224;-70
2022/11/11 10:09:21;;;;;;;2.10;2.00;;;;;;;-142.65;67.56;50178.75;5114822;28;20185;-70
2022/11/11 10:12:10;;;;;;;1.77;1.77;;;;;;;;;;5114708;28;20212;-70
2022/11/11 10:15:00;;;;;;;4.60;2.10;;;;;;;-142.65;67.56;50168.78;5114684;28;20293;-71
2022/11/11 10:18:00;;;;;;;5.53;2.23;;;;;;;-142.65;67.58;50164.81;5114759;28;20250;-71
2022/11/11 10:20:54;;;;;;;2.27;2.17;;;;;;;-142.65;66.31;50172.78;5114969;28;20316;-71
2022/11/11 10:23:38;;;;;;;2.10;2.10;;;;;;;-142.65;66.18;50170.78;5099222;28;20216;-71
2022/11/11 10:26:40;;;;;;;1.70;1.70;;;;;;;-142.65;65.68;50176.75;5114368;28;20223;-71
2022/11/11 10:29:30;;;;;;;3.47;2.10;;;;;;;-142.65;65.37;50168.78;5114193;28;20200;-71
2022/11/11 10:32:20;;;;;;;2.20;2.17;;;;;;;-142.65;64.62;50172.78;5114402;28;20208;-71
2022/11/11 10:35:20;;;;;;;4.17;2.07;;;;;;;-142.65;63.74;50164.81;5114400;28;20254;-71
2022/11/11 10:38:25;;;;;;;1.70;1.70;;;;;;;;;;5114337;28;20654;-70
2022/11/11 10:41:26;;;;;;;1.70;1.70;;;;;;;-142.65;63.88;50174.75;5114325;28;20646;-70
2022/11/11 10:44:24;;;;;;;1.77;1.77;;;;;;;-142.65;62.84;50170.78;5114554;28;20528;-71
2022/11/11 10:47:13;;;;;;;1.77;1.77;;;;;;;;;;5113971;28;20685;-70
2022/11/11 10:49:58;;;;;;;3.27;2.37;;;;;;;;;;5114245;28;20670;-70
2022/11/11 10:52:49;;;;;;;1.50;1.50;;;;;;;-142.65;63.17;50172.78;5114216;28;20697;-70
2022/11/11 10:55:38;;;;;;;1.80;1.70;;;;;;;;;;5114159;28;20173;-70
2022/11/11 10:58:26;;;;;;;1.80;1.70;;;;;;;;;;5114037;28;20561;-70
2022/11/11 11:01:15;;;;;;;1.80;1.70;;;;;;;-142.65;63.51;50168.78;5114045;28;20714;-70
2022/11/11 11:04:16;;;;;;;1.50;1.50;;;;;;;-142.65;62.30;50162.81;5114036;28;20180;-71
2022/11/11 11:07:02;;;;;;;1.67;1.57;;;;;;;;;;5113740;28;20215;-70
2022/11/11 11:09:57;;;;;;;2.10;2.07;;;;;;;;;;5114189;28;20642;-70
2022/11/11 11:12:51;;;;;;;1.73;1.70;;;;;;;-142.65;61.64;50164.81;5113801;28;20573;-70
2022/11/11 11:15:43;;;;;;;1.83;1.77;;;;;;;-142.65;61.28;50170.78;5113776;28;20203;-70
2022/11/11 11:18:28;;;;;;;1.50;1.50;;;;;;;;;;5113891;28;20641;-70
2022/11/11 11:21:13;;;;;;;1.63;1.63;;;;;;;;;;5113926;28;20181;-70
2022/11/11 11:23:58;;;;;;;1.67;1.67;;;;;;;-142.65;61.21;50174.75;5113897;28;20645;-71
2022/11/11 11:26:47;;;;;;;4.20;1.80;;;;;;;;;;5113739;28;20208;-71
2022/11/11 11:29:35;;;;;;;1.90;1.80;;;;;;;-142.65;61.09;50168.78;5113768;28;20184;-71
2022/11/11 11:32:27;;;;;;;1.80;1.70;;;;;;;-142.65;61.21;50168.78;5113670;28;20265;-71
2022/11/11 11:35:29;;;;;;;1.63;1.63;;;;;;;;;;5113656;28;20192;-71
2022/11/11 11:38:14;;;;;;;2.73;1.60;;;;;;;-142.65;60.46;50168.78;5113748;28;20654;-73
2022/11/11 11:40:59;;;;;;;3.93;1.70;;;;;;;-142.65;60.16;50168.78;5113725;28;20177;-71
2022/11/11 11:43:45;;;;;;;2.40;2.10;;;;;;;-142.65;59.62;50172.78;5112676;28;20949;-71
2022/11/11 11:46:37;;;;;;;2.10;2.00;;;;;;;;;;5113249;28;20323;-71
2022/11/11 11:49:28;;;;;;;1.80;1.80;;;;;;;;;;5113638;28;20540;-71
2022/11/11 11:52:12;;;;;;;3.90;1.50;;;;;;;;;;5113517;28;20224;-71
2022/11/11 11:55:08;;;;;;;6.77;2.23;;;;;;;-142.65;59.87;50170.78;5113542;28;20189;-71
2022/11/11 11:57:56;;;;;;;2.33;2.20;;;;;;;-142.65;59.13;50168.78;5115814;28;20169;-71
2022/11/11 12:01:03;;;;;;;1.70;1.70;;;;;;;-142.65;60.06;50170.78;5117320;28;20184;-71
2022/11/11 12:04:03;;;;;;;2.57;1.80;;;;;;;-142.65;59.19;50168.78;5117529;28;20808;-71
2022/11/11 12:06:51;;;;;;;2.00;2.00;;;;;;;-142.65;60.47;50164.81;5117366;28;20204;-71
2022/11/11 12:09:59;;;;;;;2.27;2.20;;;;;;;;;;5117217;28;20200;-71
2022/11/11 12:13:12;;;;;;;2.27;2.17;;;;;;;-142.65;60.41;50164.81;5083151;28;20290;-71
2022/11/11 12:16:02;;;;;;;9.83;2.73;;;;;;;;;;5117024;28;20216;-71
2022/11/11 12:18:53;;;;;;;2.23;2.03;;;;;;;-142.65;60.67;50170.78;5116660;28;20287;-71
2022/11/11 12:21:48;;;;;;;4.17;2.30;;;;;;;-142.65;60.54;50172.78;5117129;28;20265;-71
2022/11/11 12:24:52;;;;;;;2.20;2.20;;;;;;;;;;5116879;28;20180;-71
2022/11/11 12:27:52;;;;;;;14.23;2.70;;;;;;;-142.65;61.03;50168.78;5116551;28;20204;-71
2022/11/11 12:30:41;;;;;;;1.63;1.63;;;;;;;;;;5116849;28;20235;-71
2022/11/11 12:33:41;;;;;;;1.80;1.80;;;;;;;-142.65;60.84;50170.78;5116656;28;20790;-71
2022/11/11 12:36:39;;;;;;;2.40;2.17;;;;;;;;;;5116649;28;20177;-71
2022/11/11 12:39:44;;;;;;;2.37;1.70;;;;;;;-142.65;59.49;50172.78;5116604;28;20185;-71
2022/11/11 12:42:47;;;;;;;2.13;2.13;;;;;;;-142.65;59.72;50180.75;5116805;28;20223;-71
2022/11/11 12:45:44;;;;;;;1.97;1.90;;;;;;;-142.65;59.84;50168.78;5116151;28;20230;-71
2022/11/11 12:48:35;;;;;;;2.03;2.03;;;;;;;-142.65;59.65;50170.78;5116458;28;20188;-71
2022/11/11 12:51:30;;;;;;;2.23;2.23;;;;;;;-142.65;59.83;50168.78;5116306;28;20746;-71
2022/11/11 12:54:15;;;;;;;1.50;1.50;;;;;;;;;;5116360;28;20177;-71
2022/11/11 12:57:14;;;;;;;6.03;1.80;;;;;;;;;;5116324;28;20230;-71
2022/11/11 13:00:04;;;;;;;2.00;1.90;;;;;;;-142.65;59.35;50172.78;5115990;28;20264;-71
2022/11/11 13:02:55;;;;;;;1.87;1.80;;;;;;;;;;5116371;28;20286;-71
2022/11/11 13:05:59;;;;;;;2.03;1.93;;;;;;;;;;5116067;28;20180;-71
2022/11/11 13:09:09;;;;;;;2.47;2.27;;;;;;;-142.65;60.39;50170.78;5114845;28;20658;-71
2022/11/11 13:12:06;;;;;;;1.83;1.83;;;;;;;-142.65;60.28;50176.75;5115918;28;20698;-70
2022/11/11 13:15:22;;;;;;;1.83;1.83;;;;;;;-142.65;60.54;50172.78;5115752;28;20655;-71
2022/11/11 13:18:17;;;;;;;2.47;2.27;;;;;;;-142.65;60.45;50168.78;5115798;28;20173;-71
2022/11/11 13:21:16;;;;;;;2.30;2.30;;;;;;;-142.65;60.43;50162.81;5100499;28;20211;-70
2022/11/11 13:24:03;;;;;;;1.87;1.77;;;;;;;-142.65;60.73;50162.81;5100479;28;20223;-70
2022/11/11 13:27:03;;;;;;;2.63;2.53;;;;;;;;;;5115811;28;20246;-70
2022/11/11 13:29:57;;;;;;;2.47;1.80;;;;;;;;;;5115635;28;20279;-70
2022/11/11 13:33:17;;;;;;;1.90;1.90;;;;;;;-142.65;59.87;50168.78;5115505;28;20211;-70
2022/11/11 13:36:13;;;;;;;1.87;1.87;;;;;;;-142.65;60.09;50174.75;5115455;28;20173;-70
2022/11/11 13:38:59;;;;;;;1.80;1.70;;;;;;;;;;5115378;28;20177;-70
2022/11/11 13:41:49;;;;;;;1.40;1.40;;;;;;;-142.65;59.62;50168.78;5115596;28;20222;-70
2022/11/11 13:44:54;;;;;;;2.03;1.97;;;;;;;;;;5115638;28;20236;-70
2022/11/11 13:47:42;;;;;;;1.83;1.83;;;;;;;;;;5114998;28;20208;-70
2022/11/11 13:50:36;;;;;;;2.10;2.10;;;;;;;-142.65;60.48;50168.78;5115268;28;20176;-70
2022/11/11 13:53:35;;;;;;;3.33;2.23;;;;;;;-142.65;60.27;50164.81;5115061;28;20212;-70
2022/11/11 13:56:38;;;;;;;1.93;1.93;;;;;;;-142.65;60.54;50178.75;5115437;28;20172;-71
2022/11/11 13:59:27;;;;;;;1.60;1.60;;;;;;;-142.65;60.17;50168.78;5115078;28;20533;-70
2022/11/11 14:02:12;;;;;;;1.50;1.50;;;;;;;;;;5114948;28;20208;-70
2022/11/11 14:05:00;;;;;;;1.80;1.80;;;;;;;-142.65;60.01;50168.78;5115249;28;20538;-70
2022/11/11 14:07:48;;;;;;;4.63;1.70;;;;;;;-142.65;60.19;50168.78;5114688;28;20567;-70
2022/11/11 14:10:32;;;;;;;3.83;2.07;;;;;;;;;;5114767;28;20196;-70
2022/11/11 14:13:20;;;;;;;1.93;1.80;;;;;;;;;;5114758;28;20350;-70
2022/11/11 14:16:09;;;;;;;4.93;1.50;;;;;;;-142.65;60.15;50168.78;5114723;28;20234;-70
2022/11/11 14:18:54;;;;;;;1.97;1.87;;;;;;;-142.65;60.23;50168.78;5114686;28;20676;-70
2022/11/11 14:22:24;;;;;;;5.47;5.07;;;;;;;-142.65;60.46;50172.78;5114530;28;20184;-70
2022/11/11 14:25:19;;;;;;;1.83;1.73;;;;;;;-142.65;60.29;50164.81;5102314;28;20200;-70
2022/11/11 14:28:31;;;;;;;1.70;1.70;;;;;;;-142.65;60.24;50170.78;5114803;28;20228;-70
2022/11/11 14:31:16;;;;;;;1.40;1.40;;;;;;;;;;5114249;28;20181;-70
2022/11/11 14:34:13;;;;;;;2.27;2.27;;;;;;;-142.65;60.09;50174.75;5114738;28;20179;-70
2022/11/11 14:37:23;;;;;;;1.90;1.90;;;;;;;-142.65;60.84;50168.78;5114713;28;20177;-70
2022/11/11 14:40:10;;;;;;;1.80;1.80;;;;;;;;;;5114672;28;20223;-70
2022/11/11 14:42:55;;;;;;;1.93;1.93;;;;;;;-142.65;61.40;50170.78;5113801;28;20212;-70
2022/11/11 14:45:43;;;;;;;2.10;2.10;;;;;;;-142.65;62.08;50180.75;5114263;28;20175;-70
2022/11/11 14:48:58;;;;;;;1.90;1.90;;;;;;;-142.65;62.28;50168.78;5114503;28;20631;-70